Aviation Digital Data Service (ADDS)

Output produced by METARs form (1212 UTC 23 August 2017)
found at http://aviationweather.gov/adds/metars/
 
KDTW 231123Z 2312/2418 26005KT P6SM SKC 
     FM231500 30013G20KT P6SM SCT035 
     FM231900 30013KT P6SM BKN050 
     FM240100 33005KT P6SM SCT070 
     FM241000 36005KT P6SM SCT025